This is the latest recevied weather packets stored in our database for station/object F4FSZ-11. If no packets are shown the sender has not sent any weather packets the latest 10 day(s).
| Time | Temp. | Humidity | Pressure | Rain* | Wind** | Luminosity | Snow |
|---|---|---|---|---|---|---|---|
| 1777874626 | 13.89° C | 70% | 1008.2 hPa | - | - | - | - |
| 1777872826 | 13.33° C | 71% | 1007.9 hPa | - | - | - | - |
| 1777871026 | 11.67° C | 81% | 1007.8 hPa | - | - | - | - |
| 1777869226 | 10.56° C | 83% | 1007.5 hPa | - | - | - | - |
| 1777867426 | 10.56° C | 81% | 1007.7 hPa | - | - | - | - |
| 1777865625 | 11.11° C | 77% | 1007.6 hPa | - | - | - | - |
| 1777863825 | 11.11° C | 78% | 1007.9 hPa | - | - | - | - |
| 1777862025 | 11.67° C | 76% | 1007.8 hPa | - | - | - | - |
| 1777860225 | 11.67° C | 74% | 1008.1 hPa | - | - | - | - |
| 1777858425 | 11.67° C | 74% | 1008.1 hPa | - | - | - | - |
| 1777856625 | 11.67° C | 75% | 1008 hPa | - | - | - | - |
| 1777854825 | 11.67° C | 78% | 1008 hPa | - | - | - | - |
| 1777853025 | 11.67° C | 76% | 1008.1 hPa | - | - | - | - |
| 1777851225 | 11.67° C | 74% | 1008.2 hPa | - | - | - | - |
| 1777849424 | 11.67° C | 72% | 1008.4 hPa | - | - | - | - |
| 1777847624 | 11.67° C | 75% | 1008.5 hPa | - | - | - | - |
| 1777845824 | 12.22° C | 73% | 1008.4 hPa | - | - | - | - |
| 1777844024 | 12.78° C | 70% | 1008.4 hPa | - | - | - | - |
| 1777842224 | 12.78° C | 67% | 1008.3 hPa | - | - | - | - |
| 1777840424 | 13.89° C | 64% | 1008 hPa | - | - | - | - |
| 1777838624 | 13.89° C | 66% | 1007.8 hPa | - | - | - | - |
| 1777836824 | 13.89° C | 65% | 1007.6 hPa | - | - | - | - |
| 1777835024 | 14.44° C | 64% | 1007.7 hPa | - | - | - | - |
| 1777833223 | 15.56° C | 59% | 1007.5 hPa | - | - | - | - |
| 1777831423 | 19.44° C | 46% | 1007.3 hPa | - | - | - | - |
* Rain since midnight (hover to see other rain measurements)
** Current wind speed in m/s (hover to see current wind gust speed)